Time;durP1;ratioP1;P1;durP2;ratioP2;P2;SDS_P1;SDS_P2;PMS_P1;PMS_P2;Temp;Humidity;BMP_temperature;BMP_pressure;BME280_temperature;BME280_humidity;BME280_pressure;Samples;Min_cycle;Max_cycle;Signal;HPM_P1;HPM_P2
2023/02/20 00:02:23;;;;;;;6.40;4.70;;;2.80;99.90;;;;;;5060600;28;20291;-81
2023/02/20 00:04:50;;;;;;;5.15;4.70;;;;;;;;;;5059679;28;20242;-81
2023/02/20 00:07:17;;;;;;;5.43;3.67;;;2.60;1.00;;;;;;5059081;28;20223;-81
2023/02/20 00:09:44;;;;;;;5.38;3.58;;;2.80;99.90;;;;;;5069285;28;20207;-81
2023/02/20 00:12:11;;;;;;;5.70;3.95;;;;;;;;;;5068998;28;20221;-81
2023/02/20 00:14:38;;;;;;;5.30;4.13;;;2.20;99.90;;;;;;5071298;28;20235;-81
2023/02/20 00:17:05;;;;;;;7.10;4.13;;;3.00;3.90;;;;;;5072236;28;20244;-81
2023/02/20 00:19:33;;;;;;;6.03;4.38;;;2.60;99.90;;;;;;5068833;28;20309;-81
2023/02/20 00:22:00;;;;;;;7.20;4.93;;;2.50;99.90;;;;;;5061530;28;20206;-82
2023/02/20 00:24:27;;;;;;;7.80;4.57;;;2.60;99.90;;;;;;5069165;28;20227;-81
2023/02/20 00:26:54;;;;;;;7.07;4.53;;;2.70;99.90;;;;;;5074336;28;20223;-81
2023/02/20 00:29:23;;;;;;;10.65;6.55;;;2.60;99.90;;;;;;5070322;28;20228;-81
2023/02/20 00:31:54;;;;;;;6.07;4.43;;;2.20;99.90;;;;;;5070140;28;20290;-80
2023/02/20 00:34:22;;;;;;;5.30;4.18;;;2.60;79.30;;;;;;5064711;28;20288;-81
2023/02/20 00:36:51;;;;;;;8.73;5.05;;;2.60;99.90;;;;;;5066939;28;20205;-80
2023/02/20 00:39:18;;;;;;;11.52;5.55;;;;;;;;;;5072666;28;20266;-80
2023/02/20 00:41:45;;;;;;;18.05;6.75;;;;;;;;;;5069446;28;20207;-80
2023/02/20 00:44:12;;;;;;;11.32;6.30;;;;;;;;;;5062640;28;20231;-80
2023/02/20 00:46:39;;;;;;;9.60;5.40;;;;;;;;;;5058655;28;20698;-80
2023/02/20 00:49:06;;;;;;;9.05;4.63;;;;;;;;;;5059161;28;20555;-79
2023/02/20 00:51:35;;;;;;;7.88;4.30;;;2.50;1.00;;;;;;5064903;28;20210;-80
2023/02/20 00:54:03;;;;;;;8.40;5.25;;;2.10;1.00;;;;;;5066691;28;20232;-81
2023/02/20 00:56:30;;;;;;;6.63;5.13;;;2.60;1.00;;;;;;5062243;28;20200;-79
2023/02/20 00:58:57;;;;;;;7.22;5.18;;;;;;;;;;5066435;28;20210;-79
2023/02/20 01:01:24;;;;;;;6.53;4.65;;;2.30;1.00;;;;;;5073202;28;20199;-79
2023/02/20 01:03:51;;;;;;;6.18;4.60;;;2.60;1.00;;;;;;5067659;28;20365;-80
2023/02/20 01:06:17;;;;;;;6.03;5.10;;;2.20;1.00;;;;;;5059295;28;20210;-80
2023/02/20 01:08:44;;;;;;;6.07;4.85;;;2.30;1.00;;;;;;5064866;28;20266;-80
2023/02/20 01:11:13;;;;;;;6.75;4.93;;;2.00;1.00;;;;;;5073630;28;20271;-80
2023/02/20 01:13:39;;;;;;;7.05;4.88;;;2.40;1.00;;;;;;5067441;28;20298;-81
2023/02/20 01:16:06;;;;;;;5.00;4.50;;;2.70;1.00;;;;;;5075635;28;20239;-80
2023/02/20 01:18:33;;;;;;;5.32;4.45;;;2.50;1.00;;;;;;5061506;28;20204;-80
2023/02/20 01:21:00;;;;;;;10.45;4.55;;;;;;;;;;5058985;28;20205;-81
2023/02/20 01:23:28;;;;;;;9.65;4.68;;;;;;;;;;5058415;28;20196;-80
2023/02/20 01:25:55;;;;;;;4.03;3.58;;;;;;;;;;5057828;28;20290;-81
2023/02/20 01:28:23;;;;;;;9.95;4.75;;;2.30;1.00;;;;;;5057520;28;20686;-81
2023/02/20 01:30:50;;;;;;;5.93;4.60;;;2.60;1.00;;;;;;5057897;28;20621;-81
2023/02/20 01:33:16;;;;;;;9.68;5.10;;;2.70;1.00;;;;;;5057902;28;20295;-80
2023/02/20 01:35:43;;;;;;;9.05;5.65;;;2.20;1.00;;;;;;5057304;28;20738;-81
2023/02/20 01:38:10;;;;;;;7.40;5.75;;;2.70;99.90;;;;;;5058744;28;20309;-80
2023/02/20 01:40:37;;;;;;;8.20;5.05;;;;;;;;;;5059276;28;20301;-81
2023/02/20 01:43:04;;;;;;;12.18;5.65;;;2.80;1.00;;;;;;5057142;28;20207;-80
2023/02/20 01:45:38;;;;;;;11.20;6.10;;;2.70;1.00;;;;;;5058020;28;20224;-81
2023/02/20 01:48:05;;;;;;;7.90;4.90;;;2.60;99.90;;;;;;5063570;28;20215;-81
2023/02/20 01:50:36;;;;;;;6.47;4.28;;;2.50;1.00;;;;;;5079547;28;20199;-85
2023/02/20 01:53:07;;;;;;;8.70;4.97;;;2.80;1.00;;;;;;5079534;28;20195;-84
2023/02/20 01:55:39;;;;;;;9.93;4.47;;;2.70;99.90;;;;;;5072722;28;20254;-80
2023/02/20 01:58:10;;;;;;;10.50;5.53;;;2.50;1.00;;;;;;5069306;28;20206;-81
2023/02/20 02:00:39;;;;;;;4.35;3.90;;;2.70;99.90;;;;;;5062990;28;20633;-80
2023/02/20 02:03:09;;;;;;;7.30;5.30;;;2.40;99.90;;;;;;5059053;28;20209;-80
2023/02/20 02:05:39;;;;;;;5.97;3.95;;;2.80;99.90;;;;;;5056846;28;20242;-80
2023/02/20 02:08:08;;;;;;;6.40;4.70;;;2.80;99.90;;;;;;5056047;28;20224;-80
2023/02/20 02:10:39;;;;;;;6.43;5.22;;;2.80;99.90;;;;;;5056677;28;20227;-80
2023/02/20 02:13:07;;;;;;;6.75;4.20;;;2.70;99.90;;;;;;5056700;28;20197;-81
2023/02/20 02:15:33;;;;;;;6.15;5.43;;;3.00;1.00;;;;;;5056648;28;20663;-81
2023/02/20 02:18:32;;;;;;;7.43;4.70;;;2.80;99.90;;;;;;5057693;28;20576;-80
2023/02/20 02:21:22;;;;;;;5.32;4.82;;;2.80;99.90;;;;;;5057156;28;20294;-81
2023/02/20 02:24:24;;;;;;;5.35;3.75;;;2.80;1.00;;;;;;5056914;28;20214;-81
2023/02/20 02:27:19;;;;;;;6.00;4.82;;;2.60;1.00;;;;;;5055846;28;20282;-80
2023/02/20 02:30:16;;;;;;;5.47;4.68;;;3.10;1.00;;;;;;5072194;28;20197;-80
2023/02/20 02:33:15;;;;;;;7.80;5.70;;;3.00;99.90;;;;;;5076759;28;20203;-80
2023/02/20 02:36:13;;;;;;;5.55;3.67;;;3.00;1.00;;;;;;5069230;28;20227;-80
2023/02/20 02:38:47;;;;;;;7.78;4.38;;;3.10;99.90;;;;;;5067681;28;20613;-81
2023/02/20 02:41:22;;;;;;;4.85;4.45;;;3.30;1.00;;;;;;5067805;28;20255;-80
2023/02/20 02:43:56;;;;;;;5.53;5.03;;;3.40;1.00;;;;;;5070868;28;20194;-82
2023/02/20 02:46:29;;;;;;;12.02;5.45;;;3.10;1.00;;;;;;5065577;28;20559;-81
2023/02/20 02:49:04;;;;;;;9.02;5.35;;;3.50;1.00;;;;;;5060065;28;20271;-82
2023/02/20 02:51:37;;;;;;;5.50;4.75;;;3.10;99.90;;;;;;5058769;28;20183;-81
2023/02/20 02:54:12;;;;;;;8.65;4.13;;;3.50;1.00;;;;;;5057686;28;20235;-81
2023/02/20 02:56:41;;;;;;;5.53;4.72;;;3.20;99.90;;;;;;5057568;28;20211;-81
2023/02/20 02:59:11;;;;;;;6.10;4.93;;;3.60;1.00;;;;;;5057628;28;20266;-81
2023/02/20 03:01:42;;;;;;;6.53;5.22;;;3.70;1.00;;;;;;5057195;28;20279;-81
2023/02/20 03:04:12;;;;;;;6.47;4.63;;;3.50;99.90;;;;;;5058658;28;20242;-81
2023/02/20 03:06:43;;;;;;;10.13;4.97;;;3.50;99.90;;;;;;5072415;28;20235;-81
2023/02/20 03:09:15;;;;;;;10.32;5.90;;;3.40;1.00;;;;;;5075380;28;20211;-81
2023/02/20 03:11:43;;;;;;;10.25;6.18;;;3.70;1.00;;;;;;5063268;28;20192;-81
2023/02/20 03:17:07;;;;;;;7.68;5.38;;;3.60;99.90;;;;;;5056855;28;20178;-82
2023/02/20 03:19:38;;;;;;;12.00;5.75;;;3.40;1.00;;;;;;5067891;28;20200;-81
2023/02/20 03:22:11;;;;;;;7.82;5.68;;;3.70;99.90;;;;;;5072711;28;20215;-81
2023/02/20 03:24:53;;;;;;;7.00;5.15;;;3.80;99.90;;;;;;5073002;28;20289;-81
2023/02/20 03:27:24;;;;;;;8.75;5.45;;;3.30;1.00;;;;;;5062505;28;20234;-81
2023/02/20 03:29:55;;;;;;;10.65;5.90;;;3.80;99.90;;;;;;5057191;28;20393;-82
2023/02/20 03:43:31;;;;;;;10.73;6.07;;;;;;;;;;5066666;28;20654;-80
2023/02/20 03:46:02;;;;;;;7.70;5.88;;;4.20;1.00;;;;;;5061153;28;20192;-80
2023/02/20 03:48:32;;;;;;;8.15;5.07;;;4.00;99.90;;;;;;5060207;28;20705;-82
2023/02/20 03:53:46;;;;;;;8.27;6.45;;;4.10;99.90;;;;;;5058547;28;20179;-81
2023/02/20 03:56:16;;;;;;;11.98;6.15;;;4.00;99.90;;;;;;5058192;28;20208;-81
2023/02/20 03:58:51;;;;;;;5.93;4.72;;;4.00;1.00;;;;;;5068130;28;20624;-81
2023/02/20 04:01:21;;;;;;;9.63;5.90;;;4.20;1.00;;;;;;5070438;28;20210;-81
2023/02/20 04:03:50;;;;;;;11.63;6.70;;;4.00;1.00;;;;;;5057499;28;20311;-82
2023/02/20 04:06:18;;;;;;;10.75;6.18;;;4.00;1.00;;;;;;5062837;28;20191;-80
2023/02/20 04:08:52;;;;;;;7.05;6.18;;;4.30;99.90;;;;;;5063065;28;20314;-80
2023/02/20 04:11:23;;;;;;;8.05;6.15;;;4.30;99.90;;;;;;5063083;28;20279;-80
2023/02/20 04:13:51;;;;;;;11.90;6.00;;;4.40;1.00;;;;;;5061480;28;20220;-81
2023/02/20 04:16:18;;;;;;;8.88;6.05;;;4.40;1.00;;;;;;5059467;28;20210;-81
2023/02/20 04:18:45;;;;;;;8.30;6.15;;;4.20;99.90;;;;;;5061920;28;20200;-80
2023/02/20 04:21:20;;;;;;;14.25;6.28;;;4.60;1.00;;;;;;5061199;28;20209;-82
2023/02/20 04:24:02;;;;;;;7.78;6.05;;;4.70;1.00;;;;;;5060486;28;20666;-81
2023/02/20 04:26:29;;;;;;;6.80;5.35;;;;;;;;;;5061996;28;20194;-80
2023/02/20 04:28:56;;;;;;;5.80;5.20;;;;;;;;;;5060086;28;20224;-80
2023/02/20 04:31:24;;;;;;;9.52;5.40;;;4.50;1.00;;;;;;5059114;28;20206;-81
2023/02/20 04:33:51;;;;;;;6.63;5.57;;;3.90;1.00;;;;;;5059266;28;20227;-82
2023/02/20 04:36:18;;;;;;;7.22;6.18;;;4.10;1.00;;;;;;5059285;28;20208;-80
2023/02/20 04:38:45;;;;;;;6.60;5.57;;;;;;;;;;5061414;28;20753;-81
2023/02/20 04:41:13;;;;;;;9.30;6.13;;;4.50;1.00;;;;;;5065671;28;20270;-82
2023/02/20 04:43:40;;;;;;;11.60;6.50;;;4.80;1.00;;;;;;5072223;28;20290;-82
2023/02/20 04:46:06;;;;;;;7.55;6.25;;;4.50;1.00;;;;;;5071009;28;20223;-81
2023/02/20 04:48:33;;;;;;;9.27;6.40;;;;;;;;;;5064188;28;20259;-80
2023/02/20 04:51:00;;;;;;;8.30;6.60;;;4.50;1.00;;;;;;5058798;28;20204;-82
2023/02/20 04:53:27;;;;;;;8.48;6.00;;;;;;;;;;5062679;28;20307;-81
2023/02/20 04:55:54;;;;;;;11.25;6.30;;;4.30;1.00;;;;;;5063570;28;20231;-81
2023/02/20 04:58:22;;;;;;;9.55;5.82;;;4.10;1.00;;;;;;5060749;28;20210;-81
2023/02/20 05:00:49;;;;;;;13.02;6.93;;;;;;;;;;5060260;28;20631;-81
2023/02/20 05:03:16;;;;;;;8.45;6.65;;;4.70;25.10;;;;;;5060057;28;20294;-81
2023/02/20 05:05:43;;;;;;;9.57;7.00;;;;;;;;;;5065078;22;20232;-82
2023/02/20 05:08:10;;;;;;;9.40;7.13;;;5.00;30.20;;;;;;5035620;28;20221;-83
2023/02/20 05:10:37;;;;;;;7.35;5.97;;;4.90;73.60;;;;;;5035569;28;20216;-83
2023/02/20 05:13:05;;;;;;;7.50;5.70;;;;;;;;;;5035191;28;20268;-83
2023/02/20 05:15:33;;;;;;;9.23;6.25;;;4.80;81.90;;;;;;5034526;28;20271;-84
2023/02/20 05:18:00;;;;;;;8.45;6.25;;;;;;;;;;5023145;28;20196;-84
2023/02/20 05:23:08;;;;;;;10.05;7.22;;;4.70;1.00;;;;;;5023657;28;20197;-84
2023/02/20 05:25:35;;;;;;;7.60;6.78;;;;;;;;;;5025744;28;20264;-82
2023/02/20 05:28:02;;;;;;;9.27;6.60;;;;;;;;;;5020285;28;20225;-84
2023/02/20 05:30:29;;;;;;;11.00;7.95;;;;;;;;;;5021210;28;20207;-85
2023/02/20 05:32:57;;;;;;;14.27;9.45;;;4.70;99.90;;;;;;5022598;28;20209;-84
2023/02/20 05:35:24;;;;;;;10.20;8.50;;;4.70;99.90;;;;;;5023237;28;20225;-84
2023/02/20 05:37:51;;;;;;;9.45;6.57;;;5.00;99.90;;;;;;5023464;28;20204;-84
2023/02/20 05:40:18;;;;;;;8.48;7.10;;;4.70;99.90;;;;;;5023319;28;20209;-84
2023/02/20 05:42:45;;;;;;;8.65;6.93;;;;;;;;;;5020904;28;20228;-85
2023/02/20 05:45:15;;;;;;;12.57;8.65;;;5.20;99.90;;;;;;5020170;28;20248;-84
2023/02/20 05:47:41;;;;;;;9.63;6.80;;;4.70;99.90;;;;;;5019964;28;20227;-84
2023/02/20 05:50:10;;;;;;;10.85;7.53;;;;;;;;;;5020051;28;20235;-83
2023/02/20 05:52:37;;;;;;;16.48;8.45;;;;;;;;;;5019592;28;20208;-85
2023/02/20 05:55:05;;;;;;;16.13;8.35;;;;;;;;;;5019374;28;20228;-83
2023/02/20 05:57:31;;;;;;;9.13;7.03;;;5.20;99.90;;;;;;5019413;28;20247;-83
2023/02/20 05:59:59;;;;;;;11.60;7.10;;;;;;;;;;5019852;28;20204;-84
2023/02/20 06:02:26;;;;;;;9.95;7.60;;;;;;;;;;5019631;28;20276;-84
2023/02/20 06:04:54;;;;;;;9.05;8.07;;;;;;;;;;5020088;28;20238;-83
2023/02/20 06:07:22;;;;;;;10.02;7.18;;;5.00;99.90;;;;;;5019460;28;20213;-84
2023/02/20 06:09:49;;;;;;;11.70;8.82;;;;;;;;;;5020238;28;20238;-84
2023/02/20 06:12:16;;;;;;;10.48;7.95;;;;;;;;;;5022921;28;20232;-85
2023/02/20 06:14:43;;;;;;;17.05;8.75;;;;;;;;;;5022377;28;20315;-84
2023/02/20 06:17:10;;;;;;;12.48;8.10;;;5.40;1.00;;;;;;5018885;28;20343;-84
2023/02/20 06:19:37;;;;;;;8.93;7.75;;;4.90;1.00;;;;;;5020032;28;20204;-84
2023/02/20 06:22:04;;;;;;;13.80;8.93;;;;;;;;;;5019767;28;20230;-84
2023/02/20 06:24:32;;;;;;;12.13;7.43;;;5.10;99.90;;;;;;5019573;28;20659;-83
2023/02/20 06:27:02;;;;;;;11.73;7.78;;;5.20;99.90;;;;;;5019066;28;20239;-82
2023/02/20 06:29:29;;;;;;;11.98;8.75;;;;;;;;;;5019105;28;20235;-83
2023/02/20 06:31:58;;;;;;;13.77;8.35;;;5.20;99.90;;;;;;5019854;28;20211;-82
2023/02/20 06:34:30;;;;;;;9.98;8.30;;;;;;;;;;5022255;28;20264;-82
2023/02/20 06:36:57;;;;;;;11.88;7.40;;;;;;;;;;5025429;28;20193;-83
2023/02/20 06:39:24;;;;;;;11.82;7.90;;;;;;;;;;5025481;28;20298;-83
2023/02/20 06:41:52;;;;;;;12.57;9.25;;;5.30;99.90;;;;;;5020553;28;20648;-84
2023/02/20 06:44:20;;;;;;;11.73;9.18;;;;;;;;;;5031129;28;20261;-82
2023/02/20 06:46:47;;;;;;;15.13;10.15;;;;;;;;;;5028000;28;20212;-83
2023/02/20 06:49:14;;;;;;;12.80;8.85;;;;;;;;;;5019017;28;20296;-84
2023/02/20 06:51:41;;;;;;;11.85;9.50;;;;;;;;;;5018895;28;20260;-84
2023/02/20 06:54:11;;;;;;;17.33;10.55;;;5.50;99.90;;;;;;5018555;28;20288;-84
2023/02/20 06:56:38;;;;;;;13.50;9.13;;;;;;;;;;5019478;28;20292;-83
2023/02/20 06:59:07;;;;;;;13.13;8.52;;;5.50;99.90;;;;;;5019932;28;20203;-83
2023/02/20 07:01:39;;;;;;;14.30;9.88;;;5.50;99.90;;;;;;5018134;28;20209;-83
2023/02/20 07:04:08;;;;;;;14.38;10.25;;;5.60;99.90;;;;;;5018104;28;20201;-83
2023/02/20 07:06:36;;;;;;;16.02;9.98;;;;;;;;;;5021094;28;20195;-84
2023/02/20 07:09:04;;;;;;;20.20;9.38;;;;;;;;;;5019479;28;20225;-84
2023/02/20 07:11:31;;;;;;;15.73;10.05;;;;;;;;;;5024033;28;20206;-83
2023/02/20 07:13:58;;;;;;;14.68;9.65;;;;;;;;;;5032139;28;20206;-83
2023/02/20 07:16:26;;;;;;;14.40;9.00;;;5.80;1.00;;;;;;5023402;28;20300;-84
2023/02/20 07:18:53;;;;;;;15.20;10.75;;;;;;;;;;5018760;28;20296;-84
2023/02/20 07:21:23;;;;;;;15.38;10.40;;;;;;;;;;5018878;28;20291;-83
2023/02/20 07:23:50;;;;;;;16.35;10.63;;;;;;;;;;5020024;28;20221;-84
2023/02/20 07:26:20;;;;;;;17.15;11.35;;;6.20;1.00;;;;;;5019357;28;20263;-84
2023/02/20 07:28:48;;;;;;;18.13;11.90;;;6.00;1.00;;;;;;5019827;28;20206;-84
2023/02/20 07:31:15;;;;;;;14.82;9.85;;;6.20;1.00;;;;;;5019505;28;20208;-84
2023/02/20 07:33:43;;;;;;;18.10;11.30;;;6.00;99.90;;;;;;5020016;28;20211;-85
2023/02/20 07:36:10;;;;;;;15.45;11.45;;;;;;;;;;5021581;28;20275;-85
2023/02/20 07:38:38;;;;;;;12.23;9.25;;;;;;;;;;5018582;28;20201;-84
2023/02/20 07:41:05;;;;;;;13.13;8.85;;;;;;;;;;5018963;28;20205;-83
2023/02/20 07:43:33;;;;;;;13.52;10.40;;;;;;;;;;5019233;28;20213;-84
2023/02/20 07:46:00;;;;;;;12.30;9.65;;;;;;;;;;5019060;28;20652;-84
2023/02/20 07:48:27;;;;;;;12.90;9.13;;;;;;;;;;5017750;28;20253;-84
2023/02/20 07:50:55;;;;;;;13.82;10.50;;;6.10;1.00;;;;;;5018691;28;20214;-83
2023/02/20 07:53:22;;;;;;;14.73;8.95;;;6.30;99.90;;;;;;5023031;28;20274;-84
2023/02/20 07:55:49;;;;;;;13.63;8.82;;;;;;;;;;5034589;28;20229;-84
2023/02/20 07:58:19;;;;;;;19.60;8.45;;;;;;;;;;5032862;28;20274;-84
2023/02/20 08:00:46;;;;;;;12.23;7.80;;;;;;;;;;5024505;28;20276;-83
2023/02/20 08:03:14;;;;;;;12.88;9.18;;;;;;;;;;5023942;28;20213;-83
2023/02/20 08:05:41;;;;;;;12.63;8.65;;;;;;;;;;5024209;28;20732;-83
2023/02/20 08:08:09;;;;;;;12.38;7.80;;;6.60;1.00;;;;;;5022498;28;20227;-84
2023/02/20 08:10:36;;;;;;;15.75;8.25;;;6.60;99.90;;;;;;5022608;28;20201;-85
2023/02/20 08:13:03;;;;;;;10.77;7.70;;;;;;;;;;5024457;28;20699;-84
2023/02/20 08:15:31;;;;;;;11.90;7.85;;;;;;;;;;5026129;28;20263;-84
2023/02/20 08:18:16;;;;;;;13.57;9.57;;;6.70;99.90;;;;;;5027998;28;20202;-86
2023/02/20 08:20:43;;;;;;;9.55;8.55;;;;;;;;;;5032053;28;20227;-82
2023/02/20 08:23:17;;;;;;;11.30;7.63;;;6.90;98.10;;;;;;5028744;28;20297;-82
2023/02/20 08:25:44;;;;;;;9.98;7.90;;;;;;;;;;5024264;28;20263;-83
2023/02/20 08:28:12;;;;;;;8.55;7.13;;;;;;;;;;5023677;28;20209;-84
2023/02/20 08:30:39;;;;;;;9.18;7.70;;;;;;;;;;5024574;28;20205;-84
2023/02/20 08:33:06;;;;;;;10.30;7.55;;;;;;;;;;5033181;28;20251;-83
2023/02/20 08:35:34;;;;;;;13.63;8.43;;;;;;;;;;5034682;28;20252;-84
2023/02/20 08:38:05;;;;;;;10.18;6.50;;;7.00;1.00;;;;;;5027569;28;20259;-84
2023/02/20 08:40:33;;;;;;;11.60;7.28;;;7.00;1.00;;;;;;5022976;28;20572;-84
2023/02/20 08:43:01;;;;;;;13.63;7.57;;;;;;;;;;5022699;28;20242;-83
2023/02/20 08:45:28;;;;;;;10.98;6.85;;;;;;;;;;5024861;28;20289;-84
2023/02/20 08:48:00;;;;;;;8.27;6.78;;;7.10;1.00;;;;;;5023342;28;20209;-84
2023/02/20 08:50:27;;;;;;;10.73;6.75;;;;;;;;;;5025964;28;20186;-84
2023/02/20 08:52:54;;;;;;;13.98;6.30;;;;;;;;;;5026250;28;20213;-83
2023/02/20 08:55:21;;;;;;;8.52;6.45;;;;;;;;;;5023766;28;20225;-83
2023/02/20 08:57:49;;;;;;;6.95;6.00;;;7.20;1.00;;;;;;5023137;28;20210;-83
2023/02/20 09:00:17;;;;;;;10.02;6.78;;;6.90;1.00;;;;;;5022217;28;20288;-84
2023/02/20 09:02:45;;;;;;;9.40;6.75;;;;;;;;;;5022720;28;20266;-84
2023/02/20 09:05:12;;;;;;;6.70;5.78;;;;;;;;;;5026999;28;20304;-83
2023/02/20 09:07:39;;;;;;;8.15;6.68;;;;;;;;;;5027673;28;20214;-84
2023/02/20 09:10:06;;;;;;;7.68;5.97;;;;;;;;;;5035953;28;20213;-82
2023/02/20 09:12:33;;;;;;;7.22;6.10;;;;;;;;;;5040099;28;20221;-83
2023/02/20 09:15:02;;;;;;;7.50;5.95;;;7.50;1.00;;;;;;5040182;28;20214;-81
2023/02/20 09:17:29;;;;;;;5.78;5.15;;;8.00;1.00;;;;;;5034769;28;20224;-84
2023/02/20 09:19:56;;;;;;;7.28;5.00;;;7.40;1.00;;;;;;5034490;28;20205;-82
2023/02/20 09:22:24;;;;;;;8.07;5.55;;;8.00;1.00;;;;;;5028917;28;20234;-83
2023/02/20 09:24:51;;;;;;;6.45;5.63;;;;;;;;;;5021777;28;20226;-84
2023/02/20 09:27:20;;;;;;;8.00;5.40;;;9.00;99.90;;;;;;5024293;28;20206;-84
2023/02/20 09:29:47;;;;;;;5.70;4.95;;;8.20;1.00;;;;;;5023666;28;20257;-84
2023/02/20 09:32:15;;;;;;;10.33;5.90;;;7.60;1.00;;;;;;5021763;28;20249;-84
2023/02/20 09:34:43;;;;;;;9.48;5.57;;;;;;;;;;5021504;28;20463;-84
2023/02/20 09:37:10;;;;;;;11.48;5.72;;;8.20;99.90;;;;;;5021678;28;20217;-84
2023/02/20 09:39:37;;;;;;;13.90;5.57;;;7.70;1.00;;;;;;5021563;28;20584;-84
2023/02/20 09:42:12;;;;;;;8.37;5.23;;;8.40;1.00;;;;;;5035134;28;20524;-83
2023/02/20 09:44:46;;;;;;;7.50;4.97;;;8.10;99.90;;;;;;5038155;28;20522;-83
2023/02/20 09:47:38;;;;;;;7.60;5.43;;;8.10;99.90;;;;;;5036684;28;20240;-83
2023/02/20 09:50:11;;;;;;;7.67;5.20;;;7.60;99.90;;;;;;5025950;28;20565;-83
2023/02/20 09:52:41;;;;;;;5.10;3.87;;;8.20;99.90;;;;;;5027255;28;20410;-83
2023/02/20 09:55:14;;;;;;;7.70;5.00;;;8.50;1.00;;;;;;5018877;28;20949;-82
2023/02/20 09:57:42;;;;;;;6.87;5.03;;;8.30;99.90;;;;;;5019829;28;20442;-82
2023/02/20 10:00:13;;;;;;;12.93;5.17;;;8.30;99.90;;;;;;5020946;28;20516;-83
2023/02/20 10:02:47;;;;;;;7.17;4.20;;;8.00;1.00;;;;;;5021134;28;20407;-83
2023/02/20 10:05:20;;;;;;;6.70;4.97;;;8.40;99.90;;;;;;5021002;28;20479;-85
2023/02/20 10:07:48;;;;;;;9.23;4.90;;;8.20;1.00;;;;;;5021588;28;20767;-83
2023/02/20 10:10:20;;;;;;;7.73;4.63;;;8.70;1.00;;;;;;5019983;28;20459;-85
2023/02/20 10:12:58;;;;;;;7.03;3.90;;;8.50;1.00;;;;;;5020965;28;20946;-84
2023/02/20 10:15:31;;;;;;;7.60;5.20;;;8.70;66.20;;;;;;5020931;28;21018;-84
2023/02/20 10:18:09;;;;;;;8.20;4.60;;;8.70;40.70;;;;;;5022070;28;20467;-83
2023/02/20 10:20:43;;;;;;;7.00;4.90;;;8.80;44.70;;;;;;5022277;28;20403;-83
2023/02/20 10:23:19;;;;;;;7.37;4.77;;;8.80;13.20;;;;;;5021484;28;20463;-83
2023/02/20 10:25:50;;;;;;;8.70;4.80;;;8.80;25.80;;;;;;5021118;28;20932;-83
2023/02/20 10:28:20;;;;;;;5.50;4.33;;;9.10;99.90;;;;;;5026599;28;20501;-84
2023/02/20 10:30:56;;;;;;;11.47;4.50;;;9.10;13.00;;;;;;5027582;28;20495;-82
2023/02/20 10:33:30;;;;;;;8.10;4.40;;;8.70;99.90;;;;;;5031525;28;20429;-83
2023/02/20 10:36:02;;;;;;;6.30;3.90;;;8.80;99.90;;;;;;5032710;28;20508;-82
2023/02/20 10:38:34;;;;;;;9.80;4.77;;;9.00;1.00;;;;;;5031678;28;20427;-84
2023/02/20 10:41:05;;;;;;;5.30;4.80;;;8.80;99.90;;;;;;5020655;28;20407;-83
2023/02/20 10:43:38;;;;;;;7.53;4.77;;;8.80;99.90;;;;;;5024898;28;20441;-85
2023/02/20 10:46:10;;;;;;;6.63;5.30;;;9.10;1.00;;;;;;5021757;28;20535;-82
2023/02/20 10:48:41;;;;;;;5.43;4.93;;;9.00;99.90;;;;;;5022235;28;20839;-84
2023/02/20 10:51:12;;;;;;;5.83;4.23;;;9.00;1.00;;;;;;5022227;28;20463;-84
2023/02/20 10:53:45;;;;;;;6.97;4.67;;;9.30;99.90;;;;;;5021051;28;20503;-83
2023/02/20 10:56:16;;;;;;;8.30;3.83;;;9.60;99.90;;;;;;5020295;28;20473;-84
2023/02/20 10:58:49;;;;;;;7.43;5.27;;;9.40;1.00;;;;;;5019757;28;20495;-83
2023/02/20 11:01:20;;;;;;;5.57;4.03;;;8.80;99.90;;;;;;5020021;28;20410;-83
2023/02/20 11:03:55;;;;;;;6.77;4.47;;;9.40;99.90;;;;;;5020669;28;20860;-84
2023/02/20 11:06:29;;;;;;;8.43;5.80;;;9.50;1.00;;;;;;5047129;22;20480;-79
2023/02/20 11:08:56;;;;;;;9.63;5.23;;;9.80;99.90;;;;;;5036749;28;20388;-79
2023/02/20 11:11:28;;;;;;;5.00;4.10;;;9.70;99.90;;;;;;5036037;28;20552;-79
2023/02/20 11:13:55;;;;;;;8.87;4.00;;;;;;;;;;5020027;28;20407;-80
2023/02/20 11:16:27;;;;;;;6.33;4.07;;;9.50;99.90;;;;;;5018109;28;20444;-80
2023/02/20 11:19:04;;;;;;;4.83;4.40;;;9.50;35.30;;;;;;5018464;28;20523;-79
2023/02/20 11:21:39;;;;;;;6.07;4.90;;;9.30;1.00;;;;;;5017894;28;20412;-80
2023/02/20 11:24:25;;;;;;;4.77;4.30;;;9.60;1.00;;;;;;5018321;28;20523;-81
2023/02/20 11:26:57;;;;;;;8.07;5.20;;;9.30;1.00;;;;;;5018726;28;20408;-80
2023/02/20 11:29:24;;;;;;;6.03;5.27;;;9.90;1.00;;;;;;5023093;28;21050;-80
2023/02/20 11:31:51;;;;;;;5.10;4.30;;;;;;;;;;5025947;28;20508;-81
2023/02/20 11:34:22;;;;;;;6.23;4.10;;;9.30;99.90;;;;;;5028199;28;20540;-78
2023/02/20 11:36:51;;;;;;;9.33;4.90;;;9.70;99.90;;;;;;5024397;28;20446;-80
2023/02/20 11:39:22;;;;;;;7.50;5.10;;;9.90;1.00;;;;;;5025192;28;20506;-81
2023/02/20 11:42:03;;;;;;;6.50;4.70;;;9.70;97.40;;;;;;5023484;28;20516;-80
2023/02/20 11:44:30;;;;;;;8.87;5.10;;;9.60;1.00;;;;;;5022931;28;20523;-81
2023/02/20 11:47:26;;;;;;;6.70;4.27;;;10.00;1.00;;;;;;5022533;28;20448;-81
2023/02/20 11:50:11;;;;;;;9.10;4.87;;;9.60;99.90;;;;;;4989871;28;20506;-79
2023/02/20 11:52:38;;;;;;;7.97;5.80;;;;;;;;;;5022290;28;20890;-81
2023/02/20 11:55:20;;;;;;;5.70;4.17;;;9.70;99.90;;;;;;5021831;28;20464;-81
2023/02/20 11:57:47;;;;;;;6.37;4.37;;;10.10;1.00;;;;;;5022186;28;20766;-81
2023/02/20 12:00:18;;;;;;;7.67;5.43;;;9.60;1.00;;;;;;5021414;28;20420;-80
2023/02/20 12:02:50;;;;;;;7.57;5.40;;;9.70;1.00;;;;;;5021930;28;20444;-81
2023/02/20 12:05:20;;;;;;;9.40;5.37;;;10.00;1.00;;;;;;5020790;28;20502;-80
2023/02/20 12:07:57;;;;;;;7.00;4.57;;;9.80;1.00;;;;;;5021930;28;20450;-80
2023/02/20 12:10:36;;;;;;;6.53;5.17;;;9.50;1.00;;;;;;5022549;28;20534;-79
2023/02/20 12:13:05;;;;;;;6.57;5.90;;;9.70;1.00;;;;;;5024833;28;20934;-80
2023/02/20 12:15:32;;;;;;;9.87;5.90;;;9.50;1.00;;;;;;5031096;28;20530;-80
2023/02/20 12:18:30;;;;;;;6.57;5.47;;;10.20;1.00;;;;;;5035095;28;20469;-80
2023/02/20 12:21:19;;;;;;;6.23;5.40;;;10.00;16.60;;;;;;5021540;28;20891;-80
2023/02/20 12:23:56;;;;;;;9.80;5.60;;;10.00;99.90;;;;;;5020067;28;20430;-80
2023/02/20 12:26:35;;;;;;;6.00;5.40;;;10.30;2.20;;;;;;5022153;28;20447;-80
2023/02/20 12:29:13;;;;;;;6.10;5.00;;;10.00;99.90;;;;;;5026732;28;20406;-80
2023/02/20 12:31:53;;;;;;;10.63;5.40;;;10.00;99.90;;;;;;5032562;28;20399;-79
2023/02/20 12:35:03;;;;;;;7.07;5.17;;;10.00;99.90;;;;;;5033126;28;20444;-79
2023/02/20 12:37:42;;;;;;;10.77;7.00;;;10.10;99.90;;;;;;5016971;28;20537;-79
2023/02/20 12:40:37;;;;;;;11.20;6.30;;;10.00;99.90;;;;;;5022954;28;20401;-80
2023/02/20 12:43:14;;;;;;;5.90;5.30;;;10.10;1.00;;;;;;5020620;28;20459;-80
2023/02/20 12:45:49;;;;;;;8.10;6.90;;;9.90;1.00;;;;;;5021644;28;20448;-81
2023/02/20 12:48:25;;;;;;;8.43;7.53;;;9.70;1.00;;;;;;5022255;28;20448;-80
2023/02/20 12:51:02;;;;;;;11.60;7.20;;;10.40;1.00;;;;;;5022926;28;20484;-80
2023/02/20 12:53:56;;;;;;;7.97;6.50;;;10.10;99.90;;;;;;5022163;28;20412;-80
2023/02/20 12:56:39;;;;;;;13.60;7.77;;;9.60;99.90;;;;;;5022169;28;20980;-80
2023/02/20 12:59:22;;;;;;;7.40;6.70;;;10.40;1.00;;;;;;5030245;28;20501;-79
2023/02/20 13:01:51;;;;;;;13.37;7.83;;;10.00;99.90;;;;;;5031404;28;20497;-79
2023/02/20 13:04:27;;;;;;;11.40;8.20;;;10.10;99.90;;;;;;5025774;28;20460;-79
2023/02/20 13:07:02;;;;;;;9.23;7.97;;;9.90;99.90;;;;;;5029940;28;20550;-80
2023/02/20 13:09:35;;;;;;;12.07;8.32;;;9.90;1.00;;;;;;5024780;28;20510;-80
2023/02/20 13:12:05;;;;;;;10.97;8.57;;;9.50;1.00;;;;;;5021777;28;20193;-81
2023/02/20 13:14:40;;;;;;;12.13;9.27;;;9.80;99.90;;;;;;5020497;28;20405;-80
2023/02/20 13:17:18;;;;;;;11.80;8.63;;;9.70;99.90;;;;;;5020589;28;20468;-80
2023/02/20 13:19:53;;;;;;;10.70;9.00;;;9.60;1.00;;;;;;5020605;28;20429;-80
2023/02/20 13:22:21;;;;;;;24.73;11.80;;;;;;;;;;5020047;28;20896;-80
2023/02/20 13:24:49;;;;;;;23.87;10.70;;;9.50;1.00;;;;;;5023198;28;20449;-80
2023/02/20 13:27:29;;;;;;;14.83;8.87;;;9.80;1.00;;;;;;5024725;28;20454;-80
2023/02/20 13:30:01;;;;;;;15.30;8.50;;;9.50;1.00;;;;;;5027330;28;20907;-80
2023/02/20 13:32:30;;;;;;;14.60;10.10;;;9.50;99.90;;;;;;5028010;28;20491;-80
2023/02/20 13:35:30;;;;;;;13.10;9.70;;;9.50;1.00;;;;;;5027073;28;20515;-80
2023/02/20 13:38:08;;;;;;;11.63;9.43;;;9.50;99.90;;;;;;5024911;28;20408;-80
2023/02/20 13:40:41;;;;;;;14.17;8.40;;;9.80;99.90;;;;;;5023409;28;20463;-80
2023/02/20 13:43:29;;;;;;;14.97;10.87;;;9.20;1.00;;;;;;5024820;28;20422;-80
2023/02/20 13:46:13;;;;;;;17.20;9.50;;;9.20;1.00;;;;;;5028550;28;20495;-79
2023/02/20 13:48:43;;;;;;;12.73;11.00;;;9.50;1.00;;;;;;5029185;28;20461;-80
2023/02/20 13:51:38;;;;;;;17.30;9.40;;;8.90;1.00;;;;;;5028772;28;20494;-80
2023/02/20 13:54:24;;;;;;;17.90;10.50;;;9.30;99.90;;;;;;4990360;28;20427;-79
2023/02/20 13:56:58;;;;;;;21.43;12.10;;;9.10;71.40;;;;;;5020837;28;20414;-80
2023/02/20 13:59:26;;;;;;;13.53;9.53;;;9.20;1.00;;;;;;5020934;28;20457;-80
2023/02/20 14:01:55;;;;;;;14.80;12.00;;;9.10;27.40;;;;;;5023821;28;20972;-80
2023/02/20 14:04:22;;;;;;;16.40;10.77;;;9.30;55.90;;;;;;5021411;28;20447;-79